Time;durP1;ratioP1;P1;durP2;ratioP2;P2;SDS_P1;SDS_P2;PMS_P1;PMS_P2;Temp;Humidity;BMP_temperature;BMP_pressure;BME280_temperature;BME280_humidity;BME280_pressure;Samples;Min_cycle;Max_cycle;Signal;HPM_P1;HPM_P2
2023/07/11 00:01:32;;;;;;;35.88;18.90;;;;;;;;;;4991290;28;20038;-61
2023/07/11 00:03:59;;;;;;;43.30;20.25;;;;;;;;;;4977695;28;20035;-63
2023/07/11 00:06:25;;;;;;;29.65;19.58;;;;;;;;;;4976364;28;20058;-61
2023/07/11 00:08:52;;;;;;;32.72;21.48;;;;;;;;;;4978952;28;20407;-61
2023/07/11 00:11:19;;;;;;;34.70;19.60;;;;;;;;;;4976819;28;20065;-61
2023/07/11 00:13:45;;;;;;;34.58;19.55;;;;;;;;;;4992269;28;20034;-62
2023/07/11 00:16:13;;;;;;;31.33;20.65;;;;;;;;;;4977454;28;20034;-63
2023/07/11 00:18:40;;;;;;;35.65;18.63;;;;;;;;;;4975828;28;20084;-62
2023/07/11 00:21:07;;;;;;;33.47;20.25;;;;;;;;;;4976707;28;20050;-65
2023/07/11 00:23:33;;;;;;;23.25;11.02;;;;;;;;;;4967258;28;20526;-64
2023/07/11 00:26:00;;;;;;;19.92;6.65;;;;;;;;;;4990657;28;20050;-64
2023/07/11 00:28:27;;;;;;;12.32;5.97;;;;;;;;;;4999635;28;20846;-65
2023/07/11 00:30:54;;;;;;;16.50;6.30;;;;;;;;;;5019046;28;20053;-63
2023/07/11 00:33:20;;;;;;;14.63;6.88;;;;;;;;;;5025966;28;20041;-62
2023/07/11 00:35:50;;;;;;;11.35;6.63;;;;;;;;;;5021288;28;20513;-64
2023/07/11 00:38:16;;;;;;;11.48;6.60;;;;;;;;;;5023184;28;20243;-61
2023/07/11 00:40:43;;;;;;;15.52;8.88;;;;;;;;;;5019167;28;20470;-62
2023/07/11 00:43:15;;;;;;;14.05;8.40;;;;;;;;;;5003172;28;20060;-62
2023/07/11 00:45:50;;;;;;;15.27;8.95;;;;;;;;;;5023828;28;20451;-64
2023/07/11 00:48:18;;;;;;;20.17;10.15;;;;;;;;;;4999815;28;20168;-63
2023/07/11 00:50:45;;;;;;;14.45;7.90;;;;;;;;;;5022855;28;20048;-61
2023/07/11 00:53:12;;;;;;;14.30;7.50;;;;;;;;;;5023858;28;20778;-60
2023/07/11 00:55:39;;;;;;;14.05;8.20;;;;;;;;;;5024271;28;20036;-61
2023/07/11 00:58:06;;;;;;;16.60;9.77;;;;;;;;;;5023919;28;20049;-70
2023/07/11 01:00:33;;;;;;;20.83;10.93;;;;;;;;;;5021238;28;20129;-63
2023/07/11 01:03:00;;;;;;;16.80;9.95;;;;;;;;;;5024330;28;20122;-62
2023/07/11 01:05:26;;;;;;;14.65;9.10;;;;;;;;;;5014311;28;20065;-65
2023/07/11 01:07:53;;;;;;;11.93;7.80;;;;;;;;;;5024741;28;20090;-62
2023/07/11 01:10:20;;;;;;;15.40;7.28;;;;;;;;;;5008398;28;20067;-62
2023/07/11 01:12:47;;;;;;;16.27;7.93;;;;;;;;;;5016756;28;22340;-64
2023/07/11 01:15:15;;;;;;;15.50;9.18;;;;;;;;;;5037203;28;20048;-62
2023/07/11 01:17:41;;;;;;;17.02;10.45;;;;;;;;;;5023861;28;20045;-63
2023/07/11 01:20:09;;;;;;;17.42;10.77;;;;;;;;;;5025479;28;20072;-65
2023/07/11 01:22:37;;;;;;;17.98;10.98;;;;;;;;;;5022903;28;20520;-64
2023/07/11 01:25:12;;;;;;;19.13;11.38;;;;;;;;;;5024586;28;20094;-63
2023/07/11 01:27:40;;;;;;;21.52;12.95;;;;;;;;;;5023984;28;20110;-63
2023/07/11 01:30:08;;;;;;;24.55;14.70;;;;;;;;;;5023540;28;20037;-64
2023/07/11 01:32:35;;;;;;;26.67;14.00;;;;;;;;;;5023815;28;20115;-66
2023/07/11 01:35:03;;;;;;;23.73;14.95;;;;;;;;;;5007449;28;20041;-61
2023/07/11 01:37:30;;;;;;;23.23;14.70;;;;;;;;;;5007266;28;20076;-60
2023/07/11 01:39:57;;;;;;;23.63;15.82;;;;;;;;;;5026557;28;20120;-60
2023/07/11 01:42:25;;;;;;;26.48;14.95;;;;;;;;;;5023749;28;20057;-66
2023/07/11 01:44:52;;;;;;;24.67;16.15;;;;;;;;;;5025697;28;20041;-59
2023/07/11 01:47:18;;;;;;;23.63;15.05;;;;;;;;;;5025876;28;20037;-61
2023/07/11 01:49:45;;;;;;;25.48;16.13;;;;;;;;;;5024326;28;20049;-62
2023/07/11 01:52:19;;;;;;;27.92;16.90;;;;;;;;;;5021125;28;20049;-60
2023/07/11 01:54:47;;;;;;;27.20;15.82;;;;;;;;;;5026930;28;20104;-60
2023/07/11 01:57:13;;;;;;;27.73;16.55;;;;;;;;;;5027708;28;20037;-60
2023/07/11 01:59:40;;;;;;;27.45;17.02;;;;;;;;;;5027367;28;20052;-63
2023/07/11 02:02:07;;;;;;;26.45;15.15;;;;;;;;;;5028983;28;20214;-60
2023/07/11 02:04:34;;;;;;;24.33;15.75;;;;;;;;;;5025682;28;20090;-60
2023/07/11 02:07:01;;;;;;;27.67;16.10;;;;;;;;;;5027273;28;20700;-60
2023/07/11 02:09:28;;;;;;;24.40;15.07;;;;;;;;;;5027663;28;20033;-60
2023/07/11 02:11:54;;;;;;;23.67;15.43;;;;;;;;;;5029687;28;21671;-60
2023/07/11 02:14:21;;;;;;;26.15;15.77;;;;;;;;;;5026694;28;20485;-59
2023/07/11 02:16:49;;;;;;;23.98;15.43;;;;;;;;;;5025314;28;20041;-62
2023/07/11 02:19:18;;;;;;;24.38;15.10;;;;;;;;;;5002583;28;20559;-60
2023/07/11 02:21:44;;;;;;;25.52;15.60;;;;;;;;;;5025339;28;20049;-59
2023/07/11 02:24:12;;;;;;;25.55;14.98;;;;;;;;;;5028560;28;20087;-59
2023/07/11 02:26:39;;;;;;;24.90;14.85;;;;;;;;;;5011266;28;20103;-61
2023/07/11 02:29:06;;;;;;;22.20;13.98;;;;;;;;;;5027733;28;20114;-62
2023/07/11 02:31:34;;;;;;;22.42;14.05;;;;;;;;;;5027183;28;20045;-63
2023/07/11 02:34:01;;;;;;;24.48;14.50;;;;;;;;;;5028050;28;20033;-61
2023/07/11 02:36:28;;;;;;;24.77;14.68;;;;;;;;;;5026141;28;20048;-61
2023/07/11 02:38:54;;;;;;;21.33;14.02;;;;;;;;;;5041307;28;20048;-61
2023/07/11 02:41:22;;;;;;;26.15;14.95;;;;;;;;;;5019769;28;20059;-64
2023/07/11 02:43:48;;;;;;;24.55;14.75;;;;;;;;;;5010048;28;20378;-63
2023/07/11 02:46:16;;;;;;;22.88;14.52;;;;;;;;;;5027177;28;20048;-63
2023/07/11 02:48:43;;;;;;;23.42;13.63;;;;;;;;;;5021831;28;20498;-64
2023/07/11 02:51:10;;;;;;;20.50;13.23;;;;;;;;;;5021720;28;20159;-65
2023/07/11 02:53:36;;;;;;;21.00;13.23;;;;;;;;;;5006367;28;20553;-64
2023/07/11 02:56:03;;;;;;;22.98;13.77;;;;;;;;;;5028841;28;20068;-63
2023/07/11 02:58:30;;;;;;;26.25;13.32;;;;;;;;;;5028723;28;20979;-63
2023/07/11 03:00:57;;;;;;;20.27;12.77;;;;;;;;;;5027124;28;20183;-63
2023/07/11 03:03:23;;;;;;;18.33;12.07;;;;;;;;;;5027054;28;20037;-64
2023/07/11 03:05:51;;;;;;;21.95;12.75;;;;;;;;;;5028018;28;20044;-64
2023/07/11 03:08:17;;;;;;;21.17;13.43;;;;;;;;;;5027573;28;20033;-63
2023/07/11 03:10:44;;;;;;;21.00;12.32;;;;;;;;;;5027695;28;20045;-64
2023/07/11 03:13:11;;;;;;;20.70;12.40;;;;;;;;;;5025628;28;20109;-64
2023/07/11 03:15:38;;;;;;;20.67;12.48;;;;;;;;;;5025320;28;20602;-63
2023/07/11 03:18:05;;;;;;;21.35;13.07;;;;;;;;;;5025981;28;20052;-63
2023/07/11 03:20:36;;;;;;;20.83;13.60;;;;;;;;;;5017824;28;20037;-63
2023/07/11 03:23:03;;;;;;;22.05;12.75;;;;;;;;;;5017198;28;20493;-64
2023/07/11 03:25:29;;;;;;;21.65;12.85;;;;;;;;;;5020526;28;20061;-64
2023/07/11 03:27:56;;;;;;;18.88;12.80;;;;;;;;;;5021803;28;20091;-63
2023/07/11 03:30:23;;;;;;;21.23;12.43;;;;;;;;;;5027498;28;21952;-63
2023/07/11 03:32:49;;;;;;;21.73;13.30;;;;;;;;;;5023827;28;20043;-64
2023/07/11 03:35:16;;;;;;;22.83;13.80;;;;;;;;;;5023825;28;20581;-64
2023/07/11 03:37:42;;;;;;;18.77;12.35;;;;;;;;;;5023499;28;20045;-63
2023/07/11 03:40:09;;;;;;;25.70;13.50;;;;;;;;;;5026057;28;20051;-64
2023/07/11 03:42:36;;;;;;;23.20;14.35;;;;;;;;;;5023357;28;20139;-63
2023/07/11 03:45:02;;;;;;;21.45;12.88;;;;;;;;;;5024615;28;20053;-64
2023/07/11 03:47:29;;;;;;;20.15;12.82;;;;;;;;;;5026287;28;20033;-65
2023/07/11 03:49:56;;;;;;;21.75;13.73;;;;;;;;;;5023564;28;20515;-63
2023/07/11 03:52:22;;;;;;;22.20;13.40;;;;;;;;;;5025350;28;20159;-63
2023/07/11 03:54:49;;;;;;;21.60;12.93;;;;;;;;;;5026410;28;20132;-65
2023/07/11 03:57:17;;;;;;;18.50;12.85;;;;;;;;;;5027086;28;20044;-63
2023/07/11 03:59:43;;;;;;;19.70;12.65;;;;;;;;;;5024953;28;20046;-64
2023/07/11 04:02:10;;;;;;;24.10;13.07;;;;;;;;;;4999954;28;20048;-64
2023/07/11 04:04:36;;;;;;;20.35;12.65;;;;;;;;;;5024411;28;20650;-64
2023/07/11 04:07:03;;;;;;;19.13;12.65;;;;;;;;;;5025597;28;20045;-64
2023/07/11 04:09:30;;;;;;;19.33;12.27;;;;;;;;;;5022855;28;20086;-62
2023/07/11 04:11:57;;;;;;;22.67;13.23;;;;;;;;;;5017234;28;20036;-62
2023/07/11 04:14:23;;;;;;;21.63;12.30;;;;;;;;;;5023904;28;20037;-63
2023/07/11 04:16:50;;;;;;;20.08;12.20;;;;;;;;;;5022394;28;20667;-61
2023/07/11 04:19:17;;;;;;;20.88;12.88;;;;;;;;;;5024022;28;20059;-64
2023/07/11 04:21:44;;;;;;;22.67;12.77;;;;;;;;;;5030299;28;20464;-63
2023/07/11 04:24:11;;;;;;;21.70;11.57;;;;;;;;;;5043376;28;20029;-63
2023/07/11 04:26:38;;;;;;;18.42;11.77;;;;;;;;;;5042053;28;20087;-63
2023/07/11 04:29:04;;;;;;;20.02;11.68;;;;;;;;;;5042464;28;20041;-62
2023/07/11 04:31:32;;;;;;;17.40;11.85;;;;;;;;;;5023086;28;20124;-62
2023/07/11 04:33:58;;;;;;;19.17;11.25;;;;;;;;;;5041610;28;20036;-62
2023/07/11 04:36:25;;;;;;;19.40;11.30;;;;;;;;;;5041984;28;20424;-62
2023/07/11 04:38:52;;;;;;;21.40;11.65;;;;;;;;;;5041968;28;20075;-62
2023/07/11 04:41:18;;;;;;;23.40;11.82;;;;;;;;;;5041441;28;20051;-65
2023/07/11 04:43:45;;;;;;;19.15;12.18;;;;;;;;;;5040753;28;20057;-63
2023/07/11 04:46:11;;;;;;;19.38;11.45;;;;;;;;;;5041372;28;20537;-65
2023/07/11 04:48:38;;;;;;;20.38;12.63;;;;;;;;;;5039853;28;20033;-63
2023/07/11 04:51:07;;;;;;;20.33;11.95;;;;;;;;;;5039425;28;20050;-64
2023/07/11 04:53:34;;;;;;;20.35;11.93;;;;;;;;;;5026277;28;20064;-64
2023/07/11 04:56:02;;;;;;;20.05;12.32;;;;;;;;;;5043019;28;20048;-64
2023/07/11 04:58:29;;;;;;;17.95;12.07;;;;;;;;;;5023343;28;20091;-63
2023/07/11 05:01:24;;;;;;;19.42;12.05;;;;;;;;;;5041027;28;20051;-64
2023/07/11 05:03:51;;;;;;;22.83;13.25;;;;;;;;;;5012055;28;20120;-64
2023/07/11 05:06:18;;;;;;;19.92;12.40;;;;;;;;;;5042431;28;20045;-65
2023/07/11 05:08:44;;;;;;;21.10;12.38;;;;;;;;;;5042272;28;20033;-65
2023/07/11 05:11:15;;;;;;;18.58;12.20;;;;;;;;;;5041203;28;20041;-65
2023/07/11 05:13:42;;;;;;;17.85;11.88;;;;;;;;;;5041792;28;20564;-64
2023/07/11 05:16:14;;;;;;;20.77;12.02;;;;;;;;;;5040393;28;20083;-63
2023/07/11 05:18:41;;;;;;;20.17;12.52;;;;;;;;;;5041875;28;20053;-65
2023/07/11 05:21:08;;;;;;;22.42;13.00;;;;;;;;;;5028066;28;21743;-64
2023/07/11 05:23:35;;;;;;;20.08;12.93;;;;;;;;;;5041310;28;20060;-65
2023/07/11 05:26:02;;;;;;;19.45;12.05;;;;;;;;;;5041818;28;20110;-65
2023/07/11 05:28:29;;;;;;;20.00;13.02;;;;;;;;;;5044778;28;20037;-65
2023/07/11 05:30:56;;;;;;;22.05;12.43;;;;;;;;;;5027407;28;20037;-64
2023/07/11 05:33:24;;;;;;;19.67;11.80;;;;;;;;;;5045212;28;20079;-68
2023/07/11 05:36:08;;;;;;;19.58;12.25;;;;;;;;;;5045695;28;20066;-66
2023/07/11 05:38:35;;;;;;;20.92;12.25;;;;;;;;;;5044796;28;20056;-66
2023/07/11 05:41:01;;;;;;;20.70;12.93;;;;;;;;;;5045109;28;20045;-65
2023/07/11 05:43:28;;;;;;;22.15;12.80;;;;;;;;;;5045189;28;20067;-65
2023/07/11 05:45:55;;;;;;;20.33;11.68;;;;;;;;;;5060237;28;20512;-66
2023/07/11 05:48:21;;;;;;;17.95;11.82;;;;;;;;;;5045448;28;20147;-64
2023/07/11 05:51:02;;;;;;;19.25;12.18;;;;;;;;;;5043402;28;20798;-65
2023/07/11 05:53:28;;;;;;;17.50;12.25;;;;;;;;;;5044318;28;20036;-65
2023/07/11 05:55:56;;;;;;;19.65;12.10;;;;;;;;;;5045801;28;20044;-64
2023/07/11 05:58:22;;;;;;;18.42;12.48;;;;;;;;;;5044551;28;20640;-65
2023/07/11 06:00:51;;;;;;;17.45;11.18;;;;;;;;;;5044067;28;20041;-63
2023/07/11 06:03:18;;;;;;;20.27;12.93;;;;;;;;;;5044001;28;20729;-65
2023/07/11 06:05:44;;;;;;;21.98;13.05;;;;;;;;;;5030379;28;20044;-65
2023/07/11 06:08:31;;;;;;;21.05;12.20;;;;;;;;;;5025978;28;22247;-65
2023/07/11 06:10:59;;;;;;;22.63;12.40;;;;;;;;;;5025577;28;20075;-65
2023/07/11 06:13:26;;;;;;;19.13;11.95;;;;;;;;;;5013331;28;20701;-66
2023/07/11 06:15:59;;;;;;;21.30;13.05;;;;;;;;;;5027568;28;20410;-66
2023/07/11 06:18:26;;;;;;;20.65;12.65;;;;;;;;;;5028023;28;20639;-65
2023/07/11 06:20:52;;;;;;;18.88;12.63;;;;;;;;;;5027562;28;20029;-65
2023/07/11 06:23:21;;;;;;;20.05;12.15;;;;;;;;;;5014723;28;20037;-64
2023/07/11 06:25:48;;;;;;;18.83;12.20;;;;;;;;;;5024422;28;20096;-66
2023/07/11 06:28:15;;;;;;;23.70;13.38;;;;;;;;;;5027213;28;20125;-63
2023/07/11 06:30:42;;;;;;;20.23;12.95;;;;;;;;;;5024760;28;20139;-63
2023/07/11 06:33:12;;;;;;;21.45;14.07;;;;;;;;;;5012510;28;20555;-64
2023/07/11 06:35:59;;;;;;;18.70;12.18;;;;;;;;;;5017192;28;20478;-65
2023/07/11 06:38:25;;;;;;;22.92;13.40;;;;;;;;;;5017298;28;20178;-65
2023/07/11 06:40:53;;;;;;;20.17;12.70;;;;;;;;;;5022266;28;20043;-64
2023/07/11 06:43:21;;;;;;;24.50;14.80;;;;;;;;;;5028616;28;20044;-65
2023/07/11 06:45:53;;;;;;;21.80;13.50;;;;;;;;;;5021244;28;20207;-65
2023/07/11 06:48:20;;;;;;;18.93;12.90;;;;;;;;;;5041018;28;20254;-65
2023/07/11 06:50:47;;;;;;;18.83;12.90;;;;;;;;;;5037580;28;20117;-65
2023/07/11 06:53:14;;;;;;;21.77;13.40;;;;;;;;;;5038907;28;20048;-64
2023/07/11 06:55:47;;;;;;;18.70;11.43;;;;;;;;;;5039090;28;20178;-66
2023/07/11 06:58:15;;;;;;;17.17;10.73;;;;;;;;;;5022514;28;20084;-67
2023/07/11 07:00:42;;;;;;;14.70;9.32;;;;;;;;;;5021292;28;20033;-64
2023/07/11 07:03:11;;;;;;;16.80;10.65;;;;;;;;;;5022154;28;20080;-65
2023/07/11 07:05:38;;;;;;;17.08;10.73;;;;;;;;;;5036329;28;20465;-63
2023/07/11 07:08:04;;;;;;;16.25;10.45;;;;;;;;;;5020666;28;20167;-64
2023/07/11 07:10:31;;;;;;;17.30;10.60;;;;;;;;;;5018875;28;20045;-64
2023/07/11 07:12:58;;;;;;;17.65;10.40;;;;;;;;;;5021252;28;20043;-63
2023/07/11 07:15:24;;;;;;;17.45;10.52;;;;;;;;;;5027365;28;20486;-64
2023/07/11 07:17:51;;;;;;;16.35;10.48;;;;;;;;;;5042275;28;20091;-63
2023/07/11 07:20:18;;;;;;;16.10;10.98;;;;;;;;;;5043832;28;20124;-64
2023/07/11 07:22:45;;;;;;;16.90;10.13;;;;;;;;;;5023797;28;20040;-63
2023/07/11 07:25:11;;;;;;;15.45;9.68;;;;;;;;;;5043854;28;20102;-64
2023/07/11 07:27:38;;;;;;;17.65;9.70;;;;;;;;;;5044156;28;20095;-66
2023/07/11 07:30:05;;;;;;;16.10;10.02;;;;;;;;;;5040857;28;20072;-64
2023/07/11 07:32:32;;;;;;;13.70;9.63;;;;;;;;;;5033388;28;20119;-63
2023/07/11 07:34:59;;;;;;;13.68;9.38;;;;;;;;;;5040994;28;20040;-64
2023/07/11 07:37:25;;;;;;;15.07;9.98;;;;;;;;;;5043312;28;20037;-63
2023/07/11 07:39:52;;;;;;;15.10;9.77;;;;;;;;;;5042126;28;20037;-64
2023/07/11 07:42:18;;;;;;;17.23;9.35;;;;;;;;;;5042779;28;20056;-65
2023/07/11 07:44:45;;;;;;;13.35;8.80;;;;;;;;;;5042932;28;20134;-63
2023/07/11 07:47:12;;;;;;;16.65;10.00;;;;;;;;;;5043370;28;20139;-64
2023/07/11 07:49:38;;;;;;;13.98;8.50;;;;;;;;;;5042122;28;20053;-65
2023/07/11 07:52:05;;;;;;;9.98;6.97;;;;;;;;;;5040979;28;20033;-63
2023/07/11 07:54:32;;;;;;;12.40;7.18;;;;;;;;;;5042314;28;20037;-63
2023/07/11 07:56:58;;;;;;;10.88;6.35;;;;;;;;;;5043779;28;20045;-63
2023/07/11 07:59:25;;;;;;;10.80;6.40;;;;;;;;;;5042575;28;20087;-62
2023/07/11 08:01:51;;;;;;;9.07;5.65;;;;;;;;;;5043176;28;20045;-63
2023/07/11 08:04:18;;;;;;;11.32;6.45;;;;;;;;;;5043669;28;20036;-64
2023/07/11 08:06:45;;;;;;;10.30;5.40;;;;;;;;;;5043608;28;20048;-64
2023/07/11 08:09:11;;;;;;;12.55;6.68;;;;;;;;;;5044303;28;20040;-63
2023/07/11 08:11:38;;;;;;;12.32;5.82;;;;;;;;;;5044636;28;20037;-63
2023/07/11 08:14:04;;;;;;;11.32;7.05;;;;;;;;;;5044323;28;20111;-64
2023/07/11 08:16:31;;;;;;;12.13;6.53;;;;;;;;;;5043466;28;20239;-65
2023/07/11 08:18:58;;;;;;;12.73;6.90;;;;;;;;;;5043104;28;20120;-65
2023/07/11 08:21:25;;;;;;;13.40;6.88;;;;;;;;;;5041866;28;20380;-64
2023/07/11 08:23:51;;;;;;;11.52;7.05;;;;;;;;;;5042356;28;20389;-64
2023/07/11 08:26:18;;;;;;;10.43;6.75;;;;;;;;;;5043143;28;20048;-64
2023/07/11 08:28:44;;;;;;;12.35;7.60;;;;;;;;;;5042905;28;20044;-65
2023/07/11 08:31:11;;;;;;;13.27;7.25;;;;;;;;;;5026859;28;20062;-65
2023/07/11 08:33:38;;;;;;;12.15;7.45;;;;;;;;;;5042478;28;20038;-63
2023/07/11 08:36:04;;;;;;;12.18;7.80;;;;;;;;;;5041266;28;20040;-64
2023/07/11 08:38:31;;;;;;;13.45;7.72;;;;;;;;;;5042329;28;20505;-63
2023/07/11 08:40:58;;;;;;;13.95;7.28;;;;;;;;;;5040547;28;20115;-64
2023/07/11 08:43:29;;;;;;;11.60;7.68;;;;;;;;;;5042066;28;20045;-63
2023/07/11 08:45:59;;;;;;;15.23;8.05;;;;;;;;;;5046102;28;20056;-66
2023/07/11 08:48:29;;;;;;;12.00;7.80;;;;;;;;;;5042198;28;20490;-63
2023/07/11 08:51:00;;;;;;;16.00;8.07;;;;;;;;;;5043534;28;20498;-62
2023/07/11 08:53:49;;;;;;;11.95;7.32;;;;;;;;;;5041572;28;20029;-64
2023/07/11 08:56:36;;;;;;;14.02;8.02;;;;;;;;;;5042294;28;20052;-63
2023/07/11 08:59:14;;;;;;;12.90;7.95;;;;;;;;;;5029488;28;20033;-64
2023/07/11 09:01:40;;;;;;;18.20;8.77;;;;;;;;;;5040202;28;21101;-62
2023/07/11 09:04:10;;;;;;;13.70;8.32;;;;;;;;;;5047781;28;20164;-62
2023/07/11 09:06:41;;;;;;;13.70;8.90;;;;;;;;;;5041921;28;20739;-64
2023/07/11 09:09:09;;;;;;;15.50;8.25;;;;;;;;;;5042645;28;20041;-64
2023/07/11 09:11:56;;;;;;;14.05;8.75;;;;;;;;;;5041339;28;20362;-64
2023/07/11 09:14:36;;;;;;;11.80;7.95;;;;;;;;;;5042186;28;20045;-65
2023/07/11 09:17:11;;;;;;;14.57;8.38;;;;;;;;;;5042674;28;20040;-63
2023/07/11 09:19:38;;;;;;;12.52;7.88;;;;;;;;;;5043039;28;20134;-63
2023/07/11 09:22:08;;;;;;;12.65;8.35;;;;;;;;;;5041764;28;20051;-63
2023/07/11 09:24:41;;;;;;;12.73;7.70;;;;;;;;;;5022302;28;20385;-61
2023/07/11 09:27:19;;;;;;;12.05;7.13;;;;;;;;;;5043588;28;20623;-63
2023/07/11 09:29:47;;;;;;;12.45;7.57;;;;;;;;;;5040757;28;20513;-64
2023/07/11 09:32:14;;;;;;;12.48;8.05;;;;;;;;;;5043362;28;20037;-61
2023/07/11 09:34:46;;;;;;;12.80;7.35;;;;;;;;;;5042531;28;20045;-62
2023/07/11 09:37:18;;;;;;;12.63;7.32;;;;;;;;;;5041498;28;20037;-62
2023/07/11 09:39:55;;;;;;;11.93;7.38;;;;;;;;;;5043174;28;20776;-63
2023/07/11 09:42:31;;;;;;;12.88;7.95;;;;;;;;;;5041748;28;20094;-63
2023/07/11 09:44:59;;;;;;;12.52;7.80;;;;;;;;;;5027967;28;20040;-63
2023/07/11 09:47:30;;;;;;;13.05;7.63;;;;;;;;;;5042408;28;20037;-65
2023/07/11 09:49:58;;;;;;;12.55;7.68;;;;;;;;;;5041955;28;20049;-64
2023/07/11 09:52:26;;;;;;;14.25;7.88;;;;;;;;;;5043280;28;20045;-63
2023/07/11 09:54:54;;;;;;;15.88;7.68;;;;;;;;;;5041246;28;20037;-64
2023/07/11 09:57:20;;;;;;;12.98;7.68;;;;;;;;;;5042821;28;20502;-65
2023/07/11 09:59:55;;;;;;;12.18;7.70;;;;;;;;;;5041122;28;20045;-64
2023/07/11 10:02:22;;;;;;;15.68;8.32;;;;;;;;;;5042168;28;20068;-64
2023/07/11 10:04:51;;;;;;;11.82;7.78;;;;;;;;;;5039183;28;20702;-63
2023/07/11 10:07:22;;;;;;;14.05;7.82;;;;;;;;;;5027467;28;20049;-65
2023/07/11 10:09:52;;;;;;;13.70;7.72;;;;;;;;;;5041572;28;20423;-63
2023/07/11 10:12:23;;;;;;;12.35;7.43;;;;;;;;;;5042815;28;20859;-65
2023/07/11 10:14:54;;;;;;;13.48;8.07;;;;;;;;;;5042695;28;20052;-64
2023/07/11 10:17:42;;;;;;;12.65;7.97;;;;;;;;;;5004840;28;20300;-64
2023/07/11 10:20:15;;;;;;;12.45;7.13;;;;;;;;;;5006194;28;20045;-63
2023/07/11 10:22:43;;;;;;;11.80;7.82;;;;;;;;;;5008469;28;20041;-63
2023/07/11 10:25:12;;;;;;;12.68;7.82;;;;;;;;;;5007105;28;20451;-64
2023/07/11 10:27:40;;;;;;;15.20;7.82;;;;;;;;;;5008920;28;20578;-67
2023/07/11 10:30:07;;;;;;;13.05;7.88;;;;;;;;;;4994445;28;20401;-65
2023/07/11 10:32:41;;;;;;;15.40;8.43;;;;;;;;;;5006202;28;20044;-65
2023/07/11 10:35:14;;;;;;;13.57;7.90;;;;;;;;;;5005133;28;20069;-64
2023/07/11 10:37:46;;;;;;;13.82;8.65;;;;;;;;;;5006347;28;20562;-65
2023/07/11 10:40:21;;;;;;;13.23;8.57;;;;;;;;;;4994780;28;20259;-65
2023/07/11 10:43:07;;;;;;;15.20;9.15;;;;;;;;;;5007710;28;20052;-63
2023/07/11 10:45:41;;;;;;;17.60;9.70;;;;;;;;;;4995962;28;20056;-64
2023/07/11 10:48:08;;;;;;;17.67;9.80;;;;;;;;;;5006833;28;20041;-64
2023/07/11 10:50:44;;;;;;;12.70;8.10;;;;;;;;;;5007345;28;20046;-64
2023/07/11 10:53:30;;;;;;;14.73;9.18;;;;;;;;;;5006125;28;20125;-64
2023/07/11 10:56:22;;;;;;;18.50;8.45;;;;;;;;;;5036409;28;20107;-64
2023/07/11 10:58:49;;;;;;;17.23;10.30;;;;;;;;;;5042101;28;20041;-64
2023/07/11 11:01:32;;;;;;;16.15;8.30;;;;;;;;;;5045137;28;20068;-63
2023/07/11 11:04:35;;;;;;;14.68;8.85;;;;;;;;;;5041284;28;20049;-65
2023/07/11 11:07:12;;;;;;;13.57;8.70;;;;;;;;;;5043631;28;20153;-64
2023/07/11 11:09:57;;;;;;;12.23;8.40;;;;;;;;;;5042480;28;20044;-64
2023/07/11 11:12:42;;;;;;;15.30;8.70;;;;;;;;;;5042999;28;20045;-64
2023/07/11 11:15:15;;;;;;;14.88;8.50;;;;;;;;;;5040426;28;20047;-61
2023/07/11 11:17:56;;;;;;;14.27;9.40;;;;;;;;;;5042132;28;20118;-60
2023/07/11 11:20:27;;;;;;;13.55;8.35;;;;;;;;;;5043941;28;20036;-61
2023/07/11 11:23:24;;;;;;;16.70;9.13;;;;;;;;;;5043933;28;20041;-62
2023/07/11 11:25:57;;;;;;;18.02;9.18;;;;;;;;;;5043555;28;20774;-60
2023/07/11 11:28:41;;;;;;;16.15;9.85;;;;;;;;;;5028906;28;20064;-68
2023/07/11 11:31:11;;;;;;;12.90;8.10;;;;;;;;;;5044609;28;20167;-64
2023/07/11 11:33:45;;;;;;;17.83;8.63;;;;;;;;;;5041849;28;20071;-62
2023/07/11 11:36:12;;;;;;;13.20;8.43;;;;;;;;;;5044907;28;20037;-62
2023/07/11 11:39:10;;;;;;;14.70;9.05;;;;;;;;;;5004683;28;20069;-63
2023/07/11 11:41:42;;;;;;;15.02;8.68;;;;;;;;;;5011690;28;20080;-62
2023/07/11 11:44:34;;;;;;;14.80;8.75;;;;;;;;;;5003832;28;20466;-64
2023/07/11 11:47:01;;;;;;;17.27;8.73;;;;;;;;;;5003098;28;20060;-64
2023/07/11 11:49:28;;;;;;;15.02;9.43;;;;;;;;;;5004363;28;20041;-64
2023/07/11 11:51:55;;;;;;;14.10;8.82;;;;;;;;;;5003865;28;20148;-63
2023/07/11 11:54:25;;;;;;;17.23;9.48;;;;;;;;;;5004868;28;20037;-63
2023/07/11 11:56:58;;;;;;;15.93;9.45;;;;;;;;;;5004418;28;20160;-64
2023/07/11 11:59:28;;;;;;;17.20;8.93;;;;;;;;;;5022373;28;20465;-65
2023/07/11 12:01:57;;;;;;;16.98;9.10;;;;;;;;;;5004932;28;20098;-65
2023/07/11 12:04:29;;;;;;;17.27;9.38;;;;;;;;;;5002479;28;20034;-68
2023/07/11 12:07:05;;;;;;;16.40;8.80;;;;;;;;;;5005484;28;20061;-61
2023/07/11 12:09:35;;;;;;;13.05;8.55;;;;;;;;;;5002950;28;20289;-64
2023/07/11 12:12:09;;;;;;;16.90;9.15;;;;;;;;;;5005424;28;20061;-63
2023/07/11 12:14:43;;;;;;;15.32;9.35;;;;;;;;;;5003404;28;20457;-65
2023/07/11 12:17:28;;;;;;;15.75;8.77;;;;;;;;;;5034828;28;20072;-61
2023/07/11 12:20:14;;;;;;;19.30;9.35;;;;;;;;;;5039870;28;20104;-63
2023/07/11 12:22:41;;;;;;;20.13;10.65;;;;;;;;;;5041163;28;20160;-64
2023/07/11 12:25:07;;;;;;;18.27;9.65;;;;;;;;;;5040874;28;20037;-64
2023/07/11 12:27:34;;;;;;;14.38;8.55;;;;;;;;;;5042739;28;20513;-61
2023/07/11 12:30:23;;;;;;;15.77;9.45;;;;;;;;;;5040519;28;20598;-62
2023/07/11 12:32:50;;;;;;;13.00;8.70;;;;;;;;;;5041880;28;20037;-64
2023/07/11 12:35:17;;;;;;;14.68;9.25;;;;;;;;;;5023782;28;20029;-66
2023/07/11 12:38:02;;;;;;;15.65;9.02;;;;;;;;;;5042497;28;20119;-64
2023/07/11 12:40:38;;;;;;;15.50;8.40;;;;;;;;;;5044268;28;20135;-64
2023/07/11 12:43:16;;;;;;;15.73;9.38;;;;;;;;;;5043088;28;20124;-60
2023/07/11 12:45:45;;;;;;;14.13;8.50;;;;;;;;;;5043850;28;20051;-62
2023/07/11 12:48:13;;;;;;;16.02;9.23;;;;;;;;;;5043185;28;20095;-61
2023/07/11 12:50:46;;;;;;;16.73;8.82;;;;;;;;;;5043635;28;20565;-61
2023/07/11 12:53:13;;;;;;;13.63;8.52;;;;;;;;;;5044868;28;20565;-63
2023/07/11 12:55:43;;;;;;;15.23;8.98;;;;;;;;;;5041398;28;20434;-65
2023/07/11 12:58:20;;;;;;;15.10;8.90;;;;;;;;;;5043353;28;20025;-62
2023/07/11 13:00:47;;;;;;;13.40;8.40;;;;;;;;;;5043136;28;20048;-62
2023/07/11 13:03:18;;;;;;;14.80;8.95;;;;;;;;;;5042761;28;20039;-62
2023/07/11 13:05:53;;;;;;;14.02;8.15;;;;;;;;;;5027858;28;20048;-63
2023/07/11 13:08:20;;;;;;;15.32;8.45;;;;;;;;;;5042320;28;20047;-61
2023/07/11 13:10:56;;;;;;;15.43;8.68;;;;;;;;;;5040069;28;20521;-60
2023/07/11 13:13:22;;;;;;;15.20;8.93;;;;;;;;;;5039618;28;20049;-63
2023/07/11 13:15:50;;;;;;;16.73;8.57;;;;;;;;;;5040062;28;20220;-61
2023/07/11 13:18:39;;;;;;;15.88;9.18;;;;;;;;;;5021196;28;21043;-62
2023/07/11 13:21:07;;;;;;;23.23;9.77;;;;;;;;;;5021998;28;20076;-62
2023/07/11 13:23:36;;;;;;;13.32;7.97;;;;;;;;;;5019629;28;20129;-61
2023/07/11 13:26:09;;;;;;;15.50;9.68;;;;;;;;;;5022950;28;20045;-62
2023/07/11 13:28:40;;;;;;;17.17;9.77;;;;;;;;;;5004579;28;20040;-63
2023/07/11 13:31:08;;;;;;;20.75;10.27;;;;;;;;;;5023632;28;20042;-63
2023/07/11 13:33:39;;;;;;;17.83;9.63;;;;;;;;;;5019914;28;20118;-65
2023/07/11 13:36:26;;;;;;;17.02;11.05;;;;;;;;;;5023158;28;20037;-65
2023/07/11 13:38:56;;;;;;;16.77;10.05;;;;;;;;;;5003188;28;20955;-63
2023/07/11 13:41:24;;;;;;;17.85;9.38;;;;;;;;;;5025261;28;20069;-64
2023/07/11 13:43:55;;;;;;;17.02;10.68;;;;;;;;;;5017792;28;20029;-63
2023/07/11 13:46:23;;;;;;;18.23;11.10;;;;;;;;;;5023617;28;20159;-64
2023/07/11 13:48:49;;;;;;;20.75;12.70;;;;;;;;;;5022176;28;20569;-62
2023/07/11 13:51:16;;;;;;;21.67;13.00;;;;;;;;;;5029431;28;20045;-66
2023/07/11 13:53:45;;;;;;;21.92;12.32;;;;;;;;;;5024961;28;20029;-63
2023/07/11 13:56:12;;;;;;;19.70;11.63;;;;;;;;;;5036939;28;20047;-61
2023/07/11 13:58:38;;;;;;;19.63;11.48;;;;;;;;;;5041743;28;20045;-64
2023/07/11 14:01:10;;;;;;;21.38;13.70;;;;;;;;;;5047237;28;20045;-64
2023/07/11 14:03:37;;;;;;;19.17;11.70;;;;;;;;;;5041378;28;20037;-64
2023/07/11 14:06:03;;;;;;;20.65;11.57;;;;;;;;;;5047117;28;20135;-64
2023/07/11 14:08:30;;;;;;;19.30;12.63;;;;;;;;;;5030743;28;20041;-64
2023/07/11 14:10:57;;;;;;;18.80;11.73;;;;;;;;;;5047268;28;20044;-64
2023/07/11 14:13:25;;;;;;;20.48;13.00;;;;;;;;;;5045927;28;20037;-67
2023/07/11 14:15:52;;;;;;;17.23;10.57;;;;;;;;;;5044752;28;20036;-66
2023/07/11 14:18:19;;;;;;;18.25;10.25;;;;;;;;;;5045270;28;20176;-64
2023/07/11 14:20:45;;;;;;;21.77;11.52;;;;;;;;;;5040147;28;20044;-62
2023/07/11 14:23:26;;;;;;;22.73;11.15;;;;;;;;;;5031834;28;20033;-63
2023/07/11 14:25:53;;;;;;;19.60;11.23;;;;;;;;;;5044655;28;20052;-63
2023/07/11 14:28:20;;;;;;;21.30;11.55;;;;;;;;;;5045366;28;20033;-64
2023/07/11 14:30:46;;;;;;;20.42;12.55;;;;;;;;;;5044073;28;20946;-62
2023/07/11 14:33:18;;;;;;;21.80;13.35;;;;;;;;;;5044337;28;20736;-65
2023/07/11 14:35:45;;;;;;;20.08;12.63;;;;;;;;;;5060712;28;20044;-62
2023/07/11 14:38:13;;;;;;;24.27;13.73;;;;;;;;;;5045291;28;20037;-65